Mineral Wells, Texas
Current Conditions -  °F | °C
As of 2:53 AM on Saturday 22 Nov 2014 (Local Time) from KMWL Reporting Station
Haze Haze  
Wind Chill: 64°   Ceiling: 400
Heat Index: 64°   Visibility: 4mi
Dew Point: 62°   Wind: 12mph
Humidity: 93%   Direction: 140°SE
Pressure: 30.01"   Gusts: NA
Location:  32.81°N, 98.07°W
Report Text: KMWL 220853Z AUTO 14010KT 4SM BR OVC004 18/17 A3001 RMK AO2 LTG DSNT NE RAE34 SLP152 P0000 60072 T01780167 58005
Loading
Personal Weather Stations






























Interactive Weather Map New forecast layout! Learn more

10-Day Weather Forecast

Advertisements
Track Severe Weather on mobile